Time;durP1;ratioP1;P1;durP2;ratioP2;P2;SDS_P1;SDS_P2;PMS_P1;PMS_P2;Temp;Humidity;BMP_temperature;BMP_pressure;BME280_temperature;BME280_humidity;BME280_pressure;Samples;Min_cycle;Max_cycle;Signal;HPM_P1;HPM_P2
2022/05/22 00:01:39;;;;;;;4.28;3.55;;;;;;;12.63;75.70;102078.94;5036218;28;20034;-73
2022/05/22 00:04:04;;;;;;;7.00;3.28;;;;;;;12.61;75.37;102072.88;5037024;28;20039;-72
2022/05/22 00:06:29;;;;;;;6.43;3.60;;;;;;;12.59;75.27;102064.19;5037694;28;20056;-73
2022/05/22 00:08:55;;;;;;;5.72;3.58;;;;;;;12.58;75.44;102051.09;5037263;28;20153;-72
2022/05/22 00:11:25;;;;;;;6.20;3.25;;;;;;;12.57;75.38;102044.09;5037080;28;20032;-72
2022/05/22 00:13:50;;;;;;;5.82;3.40;;;;;;;12.56;75.56;102050.28;5034690;28;20037;-73
2022/05/22 00:19:00;;;;;;;5.88;3.30;;;;;;;12.53;75.88;102048.59;5035690;28;20024;-72
2022/05/22 00:21:25;;;;;;;5.05;3.22;;;;;;;12.51;75.73;102047.78;5039649;28;20041;-72
2022/05/22 00:23:50;;;;;;;5.75;3.05;;;;;;;12.50;75.70;102051.31;5023287;28;20068;-73
2022/05/22 00:26:16;;;;;;;4.97;3.20;;;;;;;12.47;76.14;102049.63;5039932;28;20033;-73
2022/05/22 00:28:42;;;;;;;4.72;3.00;;;;;;;12.45;76.05;102051.44;5040753;28;20088;-73
2022/05/22 00:31:07;;;;;;;4.70;3.22;;;;;;;12.44;76.04;102055.00;5041193;28;20252;-73
2022/05/22 00:33:33;;;;;;;8.30;3.28;;;;;;;12.43;76.08;102049.78;5041258;28;20038;-73
2022/05/22 00:35:58;;;;;;;6.63;3.40;;;;;;;12.41;76.08;102054.22;5040403;28;20033;-73
2022/05/22 00:38:23;;;;;;;4.97;3.50;;;;;;;12.39;76.04;102056.03;5039974;28;20033;-73
2022/05/22 00:40:49;;;;;;;5.55;3.50;;;;;;;12.36;76.11;102051.72;5040586;28;20045;-73
2022/05/22 00:43:28;;;;;;;6.85;3.75;;;;;;;12.35;76.11;102060.53;5040073;28;20071;-73
2022/05/22 00:45:54;;;;;;;5.75;3.58;;;;;;;12.33;76.12;102059.69;5037591;28;20029;-73
2022/05/22 00:48:20;;;;;;;8.10;4.15;;;;;;;12.33;75.91;102051.78;5033145;28;20075;-72
2022/05/22 00:50:45;;;;;;;6.35;3.60;;;;;;;12.32;76.17;102051.88;5040101;28;20230;-73
2022/05/22 00:53:11;;;;;;;7.00;3.60;;;;;;;12.29;76.21;102047.53;5040019;28;20249;-73
2022/05/22 00:55:37;;;;;;;5.18;3.58;;;;;;;12.28;76.05;102040.59;5040041;28;20041;-73
2022/05/22 00:58:10;;;;;;;7.15;3.35;;;;;;;12.25;75.95;102035.41;5040074;28;20112;-73
2022/05/22 01:00:36;;;;;;;6.40;3.55;;;;;;;12.25;76.03;102035.41;5039161;28;20056;-73
2022/05/22 01:05:50;;;;;;;5.22;3.33;;;;;;;12.21;76.02;102036.41;5034671;28;20044;-73
2022/05/22 01:08:15;;;;;;;9.23;4.18;;;;;;;12.20;76.31;102039.94;5039906;28;20044;-73
2022/05/22 01:10:45;;;;;;;4.22;3.20;;;;;;;12.18;76.57;102039.97;5040174;28;20040;-73
2022/05/22 01:13:13;;;;;;;4.70;3.05;;;;;;;12.16;76.18;102049.66;5040041;28;20038;-73
2022/05/22 01:15:38;;;;;;;4.13;3.35;;;;;;;12.14;76.45;102053.25;5039329;28;20079;-73
2022/05/22 01:18:04;;;;;;;6.70;3.85;;;;;;;12.13;76.54;102051.50;5057282;28;20041;-73
2022/05/22 01:20:29;;;;;;;4.30;3.30;;;;;;;12.12;76.32;102055.06;5037869;28;20272;-73
2022/05/22 01:22:55;;;;;;;6.07;3.58;;;;;;;12.10;76.63;102052.47;5039934;28;20037;-73
2022/05/22 01:25:20;;;;;;;3.90;2.95;;;;;;;12.08;76.79;102041.16;5040042;28;20108;-73
2022/05/22 01:27:46;;;;;;;9.48;3.58;;;;;;;12.08;76.51;102028.88;5005697;28;20042;-73
2022/05/22 01:30:19;;;;;;;4.50;3.13;;;;;;;12.06;76.64;102024.53;5039645;28;20041;-73
2022/05/22 01:32:47;;;;;;;7.32;3.58;;;;;;;12.05;76.41;102015.81;5043577;28;20041;-73
2022/05/22 01:35:15;;;;;;;4.57;3.00;;;;;;;12.05;76.61;102017.59;5059227;28;20099;-73
2022/05/22 01:37:42;;;;;;;6.50;3.45;;;;;;;12.04;76.31;102014.13;5059360;28;20068;-73
2022/05/22 01:40:09;;;;;;;3.42;2.95;;;;;;;12.03;76.90;102014.16;5059386;28;20268;-74
2022/05/22 01:42:35;;;;;;;6.88;3.53;;;;;;;12.02;76.63;102009.78;5051362;28;20364;-73
2022/05/22 01:45:01;;;;;;;4.80;3.28;;;;;;;12.01;76.82;102000.22;5001837;28;20038;-73
2022/05/22 01:47:26;;;;;;;4.32;3.17;;;;;;;12.00;76.46;101995.84;5019774;28;20056;-73
2022/05/22 01:49:52;;;;;;;4.45;3.55;;;;;;;11.98;76.54;101995.88;5019930;28;20030;-73
2022/05/22 01:52:17;;;;;;;5.20;3.38;;;;;;;11.98;76.82;101990.63;5019418;28;20034;-73
2022/05/22 01:54:43;;;;;;;3.22;2.70;;;;;;;11.96;76.56;101995.06;5019509;28;20030;-73
2022/05/22 01:57:08;;;;;;;4.55;3.08;;;;;;;11.95;76.55;101982.00;5018979;28;20042;-73
2022/05/22 01:59:34;;;;;;;4.20;3.00;;;;;;;11.94;76.64;101981.13;5019384;28;20033;-73
2022/05/22 02:01:59;;;;;;;3.75;3.20;;;;;;;11.93;77.02;101991.69;5019247;28;20034;-73
2022/05/22 02:04:24;;;;;;;5.13;3.10;;;;;;;11.90;76.62;101980.34;5019468;28;20038;-73
2022/05/22 02:09:34;;;;;;;3.58;2.97;;;;;;;11.87;76.90;101983.03;5026653;28;20071;-73
2022/05/22 02:12:00;;;;;;;4.75;3.25;;;;;;;11.86;76.73;101991.81;5038785;28;20033;-73
2022/05/22 02:14:25;;;;;;;4.25;3.15;;;;;;;11.85;77.00;101976.97;5039079;28;20088;-73
2022/05/22 02:16:50;;;;;;;3.92;2.95;;;;;;;11.84;77.08;101980.50;5038911;28;20048;-73
2022/05/22 02:19:16;;;;;;;5.25;3.72;;;;;;;11.83;76.88;101977.94;5038665;28;20052;-73
2022/05/22 02:21:41;;;;;;;5.47;3.65;;;;;;;11.81;76.85;101982.34;5038902;28;20231;-73
2022/05/22 02:24:07;;;;;;;4.20;3.00;;;;;;;11.80;77.03;101973.59;5038453;28;20060;-73
2022/05/22 02:26:32;;;;;;;3.95;3.10;;;;;;;11.79;77.09;101971.91;5038553;28;20049;-73
2022/05/22 02:28:57;;;;;;;3.70;3.40;;;;;;;11.78;76.72;101970.16;5021032;28;20036;-73
2022/05/22 02:31:23;;;;;;;5.00;3.00;;;;;;;11.77;77.06;101959.69;5020804;28;20025;-73
2022/05/22 02:33:48;;;;;;;6.15;2.90;;;;;;;11.76;77.00;101958.84;5038658;28;20047;-73
2022/05/22 02:36:14;;;;;;;3.10;2.80;;;;;;;11.75;77.12;101951.00;5038120;28;20044;-73
2022/05/22 02:38:41;;;;;;;4.82;3.05;;;;;;;11.74;77.15;101955.41;5004251;28;20025;-73
2022/05/22 02:41:11;;;;;;;2.83;2.33;;;;;;;11.72;77.06;101955.44;5038197;28;20041;-73
2022/05/22 02:43:37;;;;;;;3.83;2.67;;;;;;;11.70;77.28;101952.00;5037742;28;20379;-73
2022/05/22 02:46:08;;;;;;;6.03;2.88;;;;;;;11.69;77.42;101944.19;5038079;28;20061;-73
2022/05/22 02:48:33;;;;;;;3.92;2.65;;;;;;;11.68;77.21;101948.56;5038775;28;20123;-73
2022/05/22 02:50:59;;;;;;;4.22;2.97;;;;;;;11.67;77.41;101949.47;5038686;28;20321;-73
2022/05/22 02:53:24;;;;;;;3.13;2.83;;;;;;;11.65;77.41;101945.16;5020725;28;20033;-73
2022/05/22 02:55:49;;;;;;;3.28;2.72;;;;;;;11.65;77.26;101946.03;5038441;28;20063;-74
2022/05/22 02:58:15;;;;;;;3.55;2.70;;;;;;;11.64;77.46;101957.44;5020379;28;20276;-74
2022/05/22 03:00:40;;;;;;;4.80;2.97;;;;;;;11.63;77.51;101953.09;5038600;28;20045;-74
2022/05/22 03:03:06;;;;;;;4.43;3.20;;;;;;;11.63;77.23;101960.09;5038025;28;20041;-73
2022/05/22 03:06:38;;;;;;;5.50;3.75;;;;;;;11.62;77.36;101947.88;5038069;28;20245;-73
2022/05/22 03:08:16;;;;;;;4.05;2.90;;;;;;;11.61;77.59;101943.53;5022806;28;20100;-73
2022/05/22 03:10:44;;;;;;;7.35;3.35;;;;;;;11.60;77.48;101947.06;5021442;28;20360;-73
2022/05/22 03:13:10;;;;;;;5.78;3.28;;;;;;;11.59;77.61;101938.34;5018367;28;20038;-73
2022/05/22 03:15:35;;;;;;;8.45;3.50;;;;;;;11.58;77.36;101941.84;5017861;28;20050;-73
2022/05/22 03:18:00;;;;;;;6.10;3.53;;;;;;;11.56;77.36;101933.16;4997847;28;20045;-74
2022/05/22 03:20:26;;;;;;;6.88;3.55;;;;;;;11.56;77.36;101933.16;5018227;28;20033;-73
2022/05/22 03:22:51;;;;;;;6.13;3.47;;;;;;;11.56;77.31;101934.94;5017634;28;20264;-73
2022/05/22 03:25:17;;;;;;;6.63;3.45;;;;;;;11.54;77.47;101934.97;5030751;28;20409;-74
2022/05/22 03:27:42;;;;;;;5.55;3.40;;;;;;;11.53;77.69;101930.59;5037806;28;20037;-73
2022/05/22 03:30:08;;;;;;;4.70;2.97;;;;;;;11.52;77.61;101926.28;5008787;28;20026;-73
2022/05/22 03:32:33;;;;;;;4.57;3.03;;;;;;;11.51;77.49;101919.31;4996591;28;20113;-74
2022/05/22 03:35:00;;;;;;;5.88;3.60;;;;;;;11.48;77.49;101922.03;5001389;28;20045;-73
2022/05/22 03:37:25;;;;;;;6.25;3.03;;;;;;;11.46;77.26;101914.19;4996457;28;20046;-74
2022/05/22 03:39:52;;;;;;;7.85;2.70;;;;;;;11.47;77.50;101915.91;4996771;28;20214;-74
2022/05/22 03:42:17;;;;;;;4.43;3.35;;;;;;;11.46;77.44;101916.81;5034192;28;20048;-73
2022/05/22 03:44:43;;;;;;;5.05;3.00;;;;;;;11.45;77.46;101912.47;5035928;28;20072;-74
2022/05/22 03:47:08;;;;;;;4.00;2.95;;;;;;;11.43;77.68;101914.28;5035706;28;20042;-73
2022/05/22 03:49:33;;;;;;;3.85;2.60;;;;;;;11.42;77.38;101912.53;5018305;28;20577;-74
2022/05/22 03:51:59;;;;;;;3.10;2.80;;;;;;;11.42;78.48;101912.53;5035903;28;20068;-74
2022/05/22 03:54:24;;;;;;;5.45;2.97;;;;;;;11.42;78.29;101915.16;5036129;28;20245;-74
2022/05/22 03:56:50;;;;;;;4.50;2.67;;;;;;;11.43;78.32;101909.03;5017630;28;20329;-73
2022/05/22 03:59:15;;;;;;;5.65;2.75;;;;;;;11.42;78.46;101901.19;5035267;28;20229;-73
2022/05/22 04:01:41;;;;;;;2.78;2.55;;;;;;;11.41;78.48;101905.59;5035449;28;20029;-73
2022/05/22 04:04:06;;;;;;;7.20;3.33;;;;;;;11.41;78.35;101902.97;5035619;28;20042;-73
2022/05/22 04:06:31;;;;;;;4.60;3.15;;;;;;;11.41;78.76;101902.97;5035516;28;20037;-73
2022/05/22 04:08:57;;;;;;;3.75;2.90;;;;;;;11.42;78.82;101903.81;5001759;28;20058;-74
2022/05/22 04:11:22;;;;;;;4.25;3.08;;;;;;;11.42;78.64;101898.56;5035195;28;20037;-73
2022/05/22 04:13:47;;;;;;;4.35;2.65;;;;;;;11.42;78.81;101895.94;5035769;28;20048;-74
2022/05/22 04:16:13;;;;;;;5.00;2.70;;;;;;;11.41;78.71;101895.09;5035268;28;20218;-74
2022/05/22 04:18:39;;;;;;;5.05;2.92;;;;;;;11.42;78.86;101901.19;5017708;28;20076;-73
2022/05/22 04:21:05;;;;;;;6.57;3.22;;;;;;;11.41;78.73;101897.72;5015627;28;20030;-73
2022/05/22 04:26:15;;;;;;;4.97;4.00;;;;;;;11.41;78.85;101891.63;4999653;28;20080;-73
2022/05/22 04:28:41;;;;;;;7.75;2.85;;;;;;;11.40;78.71;101893.38;5015939;28;20045;-73
2022/05/22 04:31:06;;;;;;;4.43;3.28;;;;;;;11.41;78.32;101889.00;5009134;28;20042;-73
2022/05/22 04:33:32;;;;;;;3.80;2.63;;;;;;;11.41;78.32;101889.84;5015677;28;20076;-73
2022/05/22 04:35:59;;;;;;;5.05;2.65;;;;;;;11.41;78.71;101894.25;5015200;28;20046;-73
2022/05/22 04:38:24;;;;;;;4.78;2.90;;;;;;;11.41;78.57;101892.47;5010812;28;20199;-74
2022/05/22 04:40:58;;;;;;;4.03;2.65;;;;;;;11.41;78.68;101889.00;5035249;28;20120;-73
2022/05/22 04:43:24;;;;;;;4.45;2.97;;;;;;;11.40;78.74;101889.88;5025431;28;20357;-73
2022/05/22 04:45:50;;;;;;;3.85;2.55;;;;;;;11.40;78.53;101893.38;5035758;28;20353;-73
2022/05/22 04:48:19;;;;;;;4.38;2.90;;;;;;;11.41;78.56;101892.47;5035128;28;20088;-73
2022/05/22 04:50:46;;;;;;;4.88;3.00;;;;;;;11.41;78.52;101891.63;5023201;28;20337;-73
2022/05/22 04:53:12;;;;;;;4.07;2.95;;;;;;;11.41;78.71;101881.97;5034340;28;20269;-73
2022/05/22 04:55:37;;;;;;;4.97;3.95;;;;;;;11.41;78.78;101883.75;5035280;28;20037;-74
2022/05/22 04:58:02;;;;;;;5.13;4.07;;;;;;;11.44;78.89;101886.28;5033480;28;20246;-73
2022/05/22 05:00:28;;;;;;;7.15;4.40;;;;;;;11.43;78.62;101877.56;5034555;28;20105;-73
2022/05/22 05:02:53;;;;;;;9.00;4.53;;;;;;;11.45;78.88;101881.00;5017724;28;20341;-73
2022/05/22 05:05:19;;;;;;;5.75;4.43;;;;;;;11.46;78.51;101873.97;5020648;28;20053;-73
2022/05/22 05:07:44;;;;;;;8.93;4.80;;;;;;;11.47;78.87;101884.41;5032320;28;20045;-74
2022/05/22 05:10:11;;;;;;;5.15;4.10;;;;;;;11.49;78.99;101887.00;5020022;28;20117;-73
2022/05/22 05:12:38;;;;;;;7.97;4.20;;;;;;;11.49;79.37;101877.38;5034254;28;20064;-73
2022/05/22 05:15:06;;;;;;;4.85;3.85;;;;;;;11.50;79.53;101881.72;5029676;28;20041;-73
2022/05/22 05:17:31;;;;;;;5.20;3.95;;;;;;;11.51;79.61;101883.47;5016176;28;20104;-73
2022/05/22 05:19:56;;;;;;;8.50;4.00;;;;;;;11.53;79.50;101888.63;5035006;28;20068;-73
2022/05/22 05:22:22;;;;;;;4.50;3.65;;;;;;;11.54;79.65;101885.13;5033094;28;20033;-74
2022/05/22 05:24:47;;;;;;;4.10;3.35;;;;;;;11.55;79.64;101894.72;5019611;28;20083;-73
2022/05/22 05:27:12;;;;;;;3.97;3.45;;;;;;;11.55;79.74;101906.97;5036974;28;20037;-73
2022/05/22 05:29:38;;;;;;;4.13;3.70;;;;;;;11.56;79.96;101904.31;5020295;28;20370;-73
2022/05/22 05:32:04;;;;;;;4.20;3.80;;;;;;;11.57;79.84;101906.03;5031994;28;20325;-73
2022/05/22 05:34:29;;;;;;;4.20;3.33;;;;;;;11.59;80.29;101909.47;5033169;28;20042;-73
2022/05/22 05:36:55;;;;;;;5.03;3.33;;;;;;;11.61;80.29;101906.81;5029501;28;20192;-74
2022/05/22 05:39:20;;;;;;;4.65;3.38;;;;;;;11.61;80.22;101893.69;5032258;28;20057;-73
2022/05/22 05:41:46;;;;;;;5.00;3.10;;;;;;;11.63;80.50;101900.59;5029423;28;20041;-73
2022/05/22 05:44:11;;;;;;;5.75;3.67;;;;;;;11.64;80.15;101902.34;5014487;28;20491;-73
2022/05/22 05:46:38;;;;;;;3.45;3.13;;;;;;;11.65;80.31;101905.81;5012680;28;20372;-74
2022/05/22 05:49:08;;;;;;;3.97;3.55;;;;;;;11.67;80.54;101896.13;5016829;28;20245;-73
2022/05/22 05:51:36;;;;;;;3.58;2.90;;;;;;;11.68;80.91;101905.75;5016750;28;20034;-73
2022/05/22 05:54:01;;;;;;;3.40;3.10;;;;;;;11.69;80.73;101900.41;5018174;28;20068;-73
2022/05/22 05:56:26;;;;;;;4.70;3.13;;;;;;;11.71;80.64;101910.88;5017707;28;20081;-74
2022/05/22 05:58:52;;;;;;;4.70;3.08;;;;;;;11.72;80.61;101907.38;4999097;28;20038;-74
2022/05/22 06:01:18;;;;;;;3.58;3.22;;;;;;;11.74;81.03;101896.81;5014846;28;20083;-73
2022/05/22 06:03:44;;;;;;;3.72;3.42;;;;;;;11.75;80.90;101902.03;5016383;28;20038;-73
2022/05/22 06:06:11;;;;;;;3.85;3.53;;;;;;;11.77;81.24;101894.97;5017266;28;20261;-73
2022/05/22 06:08:37;;;;;;;6.53;4.32;;;;;;;11.77;81.32;101891.47;5017829;28;20702;-73
2022/05/22 06:11:03;;;;;;;5.13;4.30;;;;;;;11.78;81.36;101880.94;5015860;28;20045;-73
2022/05/22 06:13:29;;;;;;;7.88;4.82;;;;;;;11.81;81.82;101880.00;4999006;28;20041;-73
2022/05/22 06:15:55;;;;;;;5.28;4.00;;;;;;;11.83;82.27;101883.44;5017591;28;20041;-73
2022/05/22 06:18:20;;;;;;;7.45;4.63;;;;;;;11.84;82.15;101888.66;5016635;28;20327;-74
2022/05/22 06:20:46;;;;;;;8.32;4.20;;;;;;;11.87;82.54;101885.06;5016327;28;20073;-74
2022/05/22 06:23:13;;;;;;;6.70;4.10;;;;;;;11.89;82.84;101884.09;5016606;28;20037;-73
2022/05/22 06:25:41;;;;;;;7.65;4.20;;;;;;;11.91;82.90;101889.34;5007809;28;20048;-73
2022/05/22 06:28:06;;;;;;;6.63;3.75;;;;;;;11.93;83.01;101890.16;5023370;28;20037;-74
2022/05/22 06:30:31;;;;;;;6.50;3.40;;;;;;;11.95;83.29;101893.63;5006256;28;20041;-74
2022/05/22 06:32:57;;;;;;;6.18;3.75;;;;;;;11.99;83.67;101889.09;4998788;28;20038;-73
2022/05/22 06:35:23;;;;;;;6.25;3.28;;;;;;;12.01;83.39;101903.06;5011746;28;20061;-73
2022/05/22 06:37:49;;;;;;;6.18;3.40;;;;;;;12.02;83.17;101899.53;5004818;28;20050;-74
2022/05/22 06:40:14;;;;;;;5.70;3.20;;;;;;;12.05;83.12;101894.19;5015242;28;20080;-74
2022/05/22 06:42:43;;;;;;;10.43;3.78;;;;;;;12.07;82.87;101895.00;5020336;28;20238;-73
2022/05/22 06:45:22;;;;;;;5.30;3.15;;;;;;;12.10;82.73;101889.66;5031512;28;20236;-73
2022/05/22 06:47:48;;;;;;;8.73;3.63;;;;;;;12.12;83.14;101893.09;5013909;28;20406;-73
2022/05/22 06:50:18;;;;;;;7.32;4.00;;;;;;;12.18;82.96;101899.94;5025308;28;20080;-73
2022/05/22 06:52:43;;;;;;;11.38;4.53;;;;;;;12.22;83.60;101896.28;5024837;28;20086;-73
2022/05/22 06:55:11;;;;;;;11.60;4.13;;;;;;;12.24;83.51;101897.97;5025036;28;20038;-73
2022/05/22 06:57:39;;;;;;;11.77;4.88;;;;;;;12.28;84.43;101906.63;5021521;28;20045;-73
2022/05/22 07:00:07;;;;;;;7.10;3.58;;;;;;;12.32;85.24;101900.38;5031672;28;20104;-74
2022/05/22 07:02:35;;;;;;;7.30;3.65;;;;;;;12.37;84.74;101906.34;5031998;28;20067;-73
2022/05/22 07:05:02;;;;;;;10.45;3.58;;;;;;;12.42;85.03;101903.56;5015453;28;20345;-73
2022/05/22 07:07:27;;;;;;;8.68;4.38;;;;;;;12.44;84.83;101891.22;5036066;28;20067;-73
2022/05/22 07:09:54;;;;;;;6.88;3.78;;;;;;;12.47;84.87;101888.50;5036208;28;20033;-73
2022/05/22 07:12:20;;;;;;;7.72;4.30;;;;;;;12.51;84.59;101884.88;5035512;28;20029;-73
2022/05/22 07:14:48;;;;;;;9.20;3.70;;;;;;;12.56;85.00;101887.38;5036068;28;20057;-73
2022/05/22 07:17:15;;;;;;;10.70;4.55;;;;;;;12.58;85.10;101885.53;5035688;28;20037;-73
2022/05/22 07:19:44;;;;;;;5.97;4.20;;;;;;;12.63;85.08;101883.63;4997586;28;20033;-73
2022/05/22 07:22:10;;;;;;;6.85;4.32;;;;;;;12.67;84.82;101882.63;5024768;28;20052;-73
2022/05/22 07:24:35;;;;;;;7.80;4.35;;;;;;;12.71;84.95;101891.25;5033549;28;20084;-73
2022/05/22 07:27:01;;;;;;;7.07;4.38;;;;;;;12.76;84.50;101892.81;5025046;28;20041;-73
2022/05/22 07:29:27;;;;;;;7.20;4.55;;;;;;;12.82;84.82;101883.88;5035477;28;20326;-73
2022/05/22 07:31:54;;;;;;;9.38;4.68;;;;;;;12.86;84.11;101882.84;5026646;28;20038;-73
2022/05/22 07:34:20;;;;;;;8.77;3.97;;;;;;;12.88;84.02;101878.41;5030951;28;20041;-73
2022/05/22 07:36:46;;;;;;;10.05;3.75;;;;;;;12.91;83.78;101882.69;5035447;28;20045;-73
2022/05/22 07:39:11;;;;;;;15.70;4.07;;;;;;;12.93;83.74;101879.09;5035109;28;20280;-73
2022/05/22 07:41:36;;;;;;;11.30;3.80;;;;;;;12.97;83.31;101880.75;5016149;28;20341;-73
2022/05/22 07:44:02;;;;;;;8.10;3.05;;;;;;;13.01;82.88;101871.81;5015619;28;20045;-73
2022/05/22 07:46:27;;;;;;;12.88;3.83;;;;;;;13.06;82.40;101875.16;5023677;28;20037;-73
2022/05/22 07:48:53;;;;;;;8.63;3.58;;;;;;;13.10;82.13;101868.03;5016033;28;20030;-73
2022/05/22 07:51:19;;;;;;;6.00;2.55;;;;;;;13.14;81.51;101868.78;5035364;28;20587;-73
2022/05/22 07:53:44;;;;;;;6.30;2.53;;;;;;;13.17;80.97;101866.00;5011436;28;20400;-73
2022/05/22 07:56:12;;;;;;;6.43;2.17;;;;;;;13.21;80.34;101871.13;5026454;28;20048;-73
2022/05/22 07:58:38;;;;;;;4.88;2.28;;;;;;;13.24;79.87;101864.88;5021437;28;20248;-73
2022/05/22 08:01:04;;;;;;;9.65;2.42;;;;;;;13.25;79.33;101856.94;5023360;28;20105;-73
2022/05/22 08:03:29;;;;;;;5.55;1.73;;;;;;;13.29;78.91;101849.81;5020157;28;20041;-73
2022/05/22 08:05:55;;;;;;;11.02;3.65;;;;;;;13.33;78.58;101845.31;5035322;28;20410;-73
2022/05/22 08:08:22;;;;;;;6.35;2.28;;;;;;;13.38;77.66;101853.91;5020155;28;20115;-73
2022/05/22 08:10:47;;;;;;;10.23;3.58;;;;;;;13.48;77.73;101843.91;5022600;28;20025;-73
2022/05/22 08:13:14;;;;;;;9.77;3.15;;;;;;;13.56;77.80;101847.13;5024353;28;20107;-73
2022/05/22 08:15:41;;;;;;;9.63;3.13;;;;;;;13.62;77.51;101829.34;5022449;28;20341;-73
2022/05/22 08:18:08;;;;;;;8.32;3.58;;;;;;;13.69;78.01;101834.34;5033041;28;20321;-73
2022/05/22 08:20:36;;;;;;;8.30;3.05;;;;;;;13.76;78.27;101836.69;5023251;28;20109;-73
2022/05/22 08:23:08;;;;;;;7.80;2.60;;;;;;;13.82;77.70;101831.22;5033282;28;20056;-73
2022/05/22 08:25:34;;;;;;;6.43;2.70;;;;;;;13.91;76.37;101818.59;5035123;28;20064;-73
2022/05/22 08:27:59;;;;;;;5.57;2.95;;;;;;;13.99;74.81;101819.16;5016173;28;20052;-73
2022/05/22 08:30:28;;;;;;;3.58;2.00;;;;;;;14.06;75.32;101815.38;5012315;28;20325;-73
2022/05/22 08:32:54;;;;;;;4.45;1.80;;;;;;;14.12;73.64;101814.25;5017770;28;20037;-73
2022/05/22 08:35:25;;;;;;;6.72;2.05;;;;;;;14.18;73.35;101811.38;5021728;28;20065;-73
2022/05/22 08:37:50;;;;;;;5.85;1.98;;;;;;;14.23;72.83;101819.09;5029186;28;20048;-73
2022/05/22 08:40:18;;;;;;;5.63;1.77;;;;;;;14.29;72.14;101808.31;5032654;28;20223;-73
2022/05/22 08:42:48;;;;;;;2.42;1.58;;;;;;;14.30;72.03;101812.66;5025517;28;20288;-73
2022/05/22 08:45:18;;;;;;;6.95;1.95;;;;;;;14.35;72.56;101806.28;5038000;28;20063;-73
2022/05/22 08:48:01;;;;;;;4.00;2.00;;;;;;;14.42;72.48;101808.66;5030728;28;20072;-73
2022/05/22 08:50:29;;;;;;;2.95;1.70;;;;;;;14.46;72.12;101807.59;5032261;28;20037;-73
2022/05/22 08:52:59;;;;;;;6.10;2.75;;;;;;;14.48;71.94;101801.38;5027288;28;20354;-73
2022/05/22 08:58:56;;;;;;;4.70;1.80;;;;;;;14.52;71.51;101799.47;5037124;28;20041;-73
2022/05/22 09:01:25;;;;;;;5.90;1.63;;;;;;;14.56;70.22;101796.63;5026507;28;20049;-73
2022/05/22 09:04:25;;;;;;;5.15;1.98;;;;;;;14.59;70.52;101795.69;5039115;28;20041;-73
2022/05/22 09:07:01;;;;;;;3.88;1.92;;;;;;;14.66;72.00;101785.72;5025269;28;20395;-74
2022/05/22 09:09:31;;;;;;;6.10;2.08;;;;;;;14.73;71.71;101782.72;5018625;28;20033;-73
2022/05/22 09:12:03;;;;;;;2.97;1.80;;;;;;;14.81;71.32;101782.44;5026838;28;20041;-73
2022/05/22 09:14:35;;;;;;;6.20;1.75;;;;;;;14.86;71.27;101769.91;5025097;28;20096;-73
2022/05/22 09:17:06;;;;;;;5.07;2.13;;;;;;;14.97;71.83;101775.56;5028070;28;20088;-73
2022/05/22 09:19:44;;;;;;;4.95;2.20;;;;;;;15.02;70.21;101775.34;5022265;28;20065;-73
2022/05/22 09:22:32;;;;;;;6.13;2.97;;;;;;;15.06;70.17;101774.28;5004787;28;20116;-73
2022/05/22 09:24:58;;;;;;;;;;;;;;;15.07;68.85;101761.94;5027100;28;20116;-73
2022/05/22 09:27:32;;;;;;;5.60;2.22;;;;;;;15.09;69.68;101762.72;5037768;28;19917;-73
2022/05/22 09:29:57;;;;;;;3.58;2.30;;;;;;;15.13;70.27;101759.03;5031861;28;20410;-73
2022/05/22 09:32:48;;;;;;;2.93;1.70;;;;;;;15.14;70.76;101758.97;5035366;28;20029;-73
2022/05/22 09:35:39;;;;;;;5.13;2.00;;;;;;;15.16;69.13;101766.81;5008695;28;20222;-73
2022/05/22 09:38:15;;;;;;;9.85;2.40;;;;;;;15.25;68.35;101755.84;5017983;28;20038;-73
2022/05/22 09:40:44;;;;;;;8.23;2.30;;;;;;;15.27;69.12;101758.41;5022917;28;20061;-73
2022/05/22 09:43:47;;;;;;;5.75;2.40;;;;;;;15.29;69.24;101753.91;5037259;28;20049;-73
2022/05/22 09:46:31;;;;;;;6.50;2.30;;;;;;;15.32;68.78;101751.16;5031637;28;20117;-72
2022/05/22 09:49:22;;;;;;;3.28;1.60;;;;;;;15.35;68.57;101750.97;5037842;28;20248;-73
2022/05/22 09:51:56;;;;;;;2.40;1.23;;;;;;;15.43;68.61;101759.41;5033871;28;20237;-73
2022/05/22 09:54:25;;;;;;;6.03;1.73;;;;;;;15.47;67.63;101750.41;5036908;28;20165;-73
2022/05/22 09:57:12;;;;;;;6.82;2.60;;;;;;;15.53;67.86;101744.88;5037730;28;20049;-72
2022/05/22 10:00:08;;;;;;;3.65;1.92;;;;;;;15.57;67.53;101760.53;5036617;28;20053;-73
2022/05/22 10:02:42;;;;;;;6.10;2.30;;;;;;;15.65;68.30;101747.84;5037124;28;20033;-73
2022/05/22 10:05:35;;;;;;;8.75;2.60;;;;;;;15.66;65.28;101745.13;5023561;28;20047;-73
2022/05/22 10:08:09;;;;;;;3.75;1.80;;;;;;;15.69;66.24;101744.13;5023583;28;20284;-73
2022/05/22 10:11:04;;;;;;;4.47;1.92;;;;;;;15.73;67.36;101743.91;5036839;28;20420;-73
2022/05/22 10:13:33;;;;;;;7.38;2.67;;;;;;;15.80;68.41;101741.84;5016167;28;20032;-73
2022/05/22 10:16:31;;;;;;;5.00;2.30;;;;;;;15.91;67.78;101738.69;5030461;28;20037;-73
2022/05/22 10:19:22;;;;;;;7.75;2.53;;;;;;;15.99;66.40;101730.38;5029014;28;20029;-73
2022/05/22 10:22:15;;;;;;;7.63;2.50;;;;;;;16.07;67.19;101725.59;4997199;28;20226;-73
2022/05/22 10:25:15;;;;;;;5.25;2.40;;;;;;;16.08;67.56;101716.72;5023153;28;20041;-73
2022/05/22 10:27:57;;;;;;;7.18;2.70;;;;;;;16.15;68.32;101718.13;5033876;28;20037;-73
2022/05/22 10:30:42;;;;;;;6.15;2.22;;;;;;;16.23;66.98;101712.47;5028892;28;20060;-73
2022/05/22 10:33:46;;;;;;;6.15;2.35;;;;;;;16.25;67.29;101714.09;5036908;28;20033;-73
2022/05/22 10:36:15;;;;;;;4.55;2.10;;;;;;;16.27;67.63;101703.44;5023222;28;20129;-73
2022/05/22 10:38:45;;;;;;;6.18;2.78;;;;;;;16.27;66.19;101704.28;5023352;28;20033;-73
2022/05/22 10:44:23;;;;;;;4.72;2.83;;;;;;;16.27;63.25;101688.44;5024289;28;20052;-73
2022/05/22 10:46:51;;;;;;;5.25;2.72;;;;;;;16.28;64.10;101692.81;5035232;28;20029;-73
2022/05/22 10:49:24;;;;;;;7.82;2.40;;;;;;;16.31;63.55;101683.84;5033562;28;20033;-73
2022/05/22 10:51:58;;;;;;;5.65;2.10;;;;;;;16.37;64.41;101687.97;5033837;28;20325;-73
2022/05/22 10:54:29;;;;;;;6.28;2.33;;;;;;;16.43;66.13;101672.66;5029539;28;20459;-73
2022/05/22 10:57:06;;;;;;;2.25;1.80;;;;;;;16.49;65.12;101668.81;5022708;28;20145;-73
2022/05/22 10:59:31;;;;;;;7.13;2.58;;;;;;;16.51;63.41;101666.94;5004702;28;20248;-73
2022/05/22 11:02:04;;;;;;;5.35;2.40;;;;;;;16.57;65.09;101673.69;5046559;28;20034;-73
2022/05/22 11:04:42;;;;;;;2.47;1.90;;;;;;;16.66;65.39;101673.22;5036612;28;20044;-72
2022/05/22 11:07:08;;;;;;;;;;;;;;;16.74;65.36;101673.69;5036532;28;20060;-73
2022/05/22 11:09:54;;;;;;;5.50;2.60;;;;;;;16.79;64.00;101663.72;5036726;28;20201;-73
2022/05/22 11:12:23;;;;;;;4.95;2.15;;;;;;;16.81;64.21;101675.06;5035658;28;20053;-73
2022/05/22 11:14:49;;;;;;;6.88;2.13;;;;;;;16.82;61.94;101666.16;5023669;28;20252;-73
2022/05/22 11:17:19;;;;;;;6.93;2.50;;;;;;;16.84;62.14;101664.31;5035823;28;20068;-73
2022/05/22 11:19:47;;;;;;;3.40;1.77;;;;;;;16.85;62.58;101663.41;5036095;28;20033;-74
2022/05/22 11:22:27;;;;;;;7.78;2.33;;;;;;;16.93;63.92;101667.41;5024655;28;20092;-75
2022/05/22 11:25:28;;;;;;;4.05;1.95;;;;;;;16.94;63.68;101662.06;5023736;28;20040;-72
2022/05/22 11:28:11;;;;;;;4.38;2.20;;;;;;;16.96;62.96;101654.88;5031041;28;20033;-73
2022/05/22 11:31:02;;;;;;;4.30;2.33;;;;;;;16.95;60.92;101650.50;5030632;28;20370;-74
2022/05/22 11:33:45;;;;;;;4.80;2.33;;;;;;;16.97;62.04;101640.72;5036581;28;20336;-75
2022/05/22 11:36:43;;;;;;;4.10;1.95;;;;;;;16.97;60.18;101640.72;5032126;28;20301;-75
2022/05/22 11:39:46;;;;;;;7.22;2.00;;;;;;;17.01;62.28;101633.47;5032014;28;20328;-75
2022/05/22 11:42:21;;;;;;;4.70;2.45;;;;;;;17.10;60.97;101632.97;5042975;28;20037;-75
2022/05/22 11:45:18;;;;;;;4.40;2.15;;;;;;;17.13;61.55;101622.19;5022815;28;20368;-75
2022/05/22 11:47:49;;;;;;;3.90;1.88;;;;;;;17.16;61.44;101619.38;5022797;28;20041;-75
2022/05/22 11:50:33;;;;;;;5.10;1.80;;;;;;;17.21;61.53;101616.50;5023261;28;20347;-73
2022/05/22 11:53:01;;;;;;;3.55;1.77;;;;;;;17.25;61.95;101616.22;5020249;28;20083;-74